createdAt,value
2018-02-04T00:00:19.259Z,88.39
2018-02-04T00:01:29.084Z,88.76
2018-02-04T00:02:39.195Z,88.57
2018-02-04T00:03:49.253Z,88.53
2018-02-04T00:04:59.306Z,88.86
2018-02-04T00:06:09.363Z,88.86
2018-02-04T00:07:19.422Z,88.76
2018-02-04T00:08:29.479Z,88.76
2018-02-04T00:09:39.537Z,88.48
2018-02-04T00:10:49.327Z,88.48
2018-02-04T00:11:59.383Z,88.67
2018-02-04T00:13:09.460Z,88.95
2018-02-04T00:14:19.506Z,88.95
2018-02-04T00:15:29.607Z,88.57
2018-02-04T00:16:39.666Z,88.86
2018-02-04T00:17:49.453Z,88.48
2018-02-04T00:18:59.271Z,88.39
2018-02-04T00:20:10.041Z,88.57
2018-02-04T00:21:20.142Z,88.95
2018-02-04T00:22:29.398Z,88.76
2018-02-04T00:23:39.207Z,88.76
2018-02-04T00:24:49.264Z,88.86
2018-02-04T00:25:59.313Z,89.05
2018-02-04T00:27:09.400Z,88.76
2018-02-04T00:28:19.446Z,88.57
2018-02-04T00:29:29.518Z,88.76
2018-02-04T00:30:39.293Z,88.76
2018-02-04T00:31:48.834Z,88.67
2018-02-04T00:32:58.675Z,88.67
2018-02-04T00:34:08.741Z,88.57
2018-02-04T00:35:18.544Z,88.48
2018-02-04T00:36:28.605Z,88.57
2018-02-04T00:37:38.161Z,88.76
2018-02-04T00:38:48.205Z,88.76
2018-02-04T00:39:58.243Z,88.86
2018-02-04T00:41:08.292Z,88.95
2018-02-04T00:42:18.354Z,88.67
2018-02-04T00:43:28.392Z,88.86
2018-02-04T00:44:38.438Z,88.57
2018-02-04T00:45:48.486Z,88.67
2018-02-04T00:46:58.551Z,88.67
2018-02-04T00:48:08.604Z,88.76
2018-02-04T00:49:18.660Z,88.57
2018-02-04T00:50:28.712Z,88.67
2018-02-04T00:51:38.773Z,88.67
2018-02-04T00:52:48.572Z,88.67
2018-02-04T00:53:58.614Z,88.57
2018-02-04T00:55:08.665Z,88.67
2018-02-04T00:56:18.706Z,88.57
2018-02-04T00:57:28.497Z,88.67
2018-02-04T00:58:38.559Z,88.67
2018-02-04T00:59:48.618Z,88.57
2018-02-04T01:00:58.668Z,88.86
2018-02-04T01:02:08.464Z,88.86
2018-02-04T01:03:18.523Z,88.95
2018-02-04T01:04:28.297Z,88.86
2018-02-04T01:05:38.108Z,88.95
2018-02-04T01:06:48.152Z,88.76
2018-02-04T01:07:58.289Z,89.05
2018-02-04T01:09:08.354Z,88.86
2018-02-04T01:10:18.411Z,88.86
2018-02-04T01:11:28.454Z,88.57
2018-02-04T01:12:38.492Z,88.76
2018-02-04T01:13:48.542Z,88.76
2018-02-04T01:14:58.580Z,88.76
2018-02-04T01:16:08.680Z,88.76
2018-02-04T01:17:18.468Z,88.67
2018-02-04T01:18:28.570Z,88.57
2018-02-04T01:19:38.613Z,88.86
2018-02-04T01:20:48.672Z,88.57
2018-02-04T01:21:58.447Z,88.57
2018-02-04T01:23:08.500Z,88.57
2018-02-04T01:24:18.546Z,88.57
2018-02-04T01:25:28.651Z,88.67
2018-02-04T01:26:38.435Z,88.86
2018-02-04T01:27:48.227Z,88.76
2018-02-04T01:28:58.289Z,88.76
2018-02-04T01:30:08.332Z,88.76
2018-02-04T01:31:18.367Z,88.86
2018-02-04T01:32:28.164Z,88.76
2018-02-04T01:33:38.199Z,88.86
2018-02-04T01:34:49.322Z,88.76
2018-02-04T01:35:59.375Z,88.67
2018-02-04T01:37:09.490Z,88.95
2018-02-04T01:38:19.587Z,88.62
2018-02-04T01:39:29.625Z,88.76
2018-02-04T01:40:39.476Z,88.76
2018-02-04T01:41:49.269Z,88.86
2018-02-04T01:42:58.833Z,88.95
2018-02-04T01:44:08.604Z,88.76
2018-02-04T01:45:18.656Z,88.91
2018-02-04T01:46:28.445Z,88.76
2018-02-04T01:47:38.497Z,88.76
2018-02-04T01:48:48.595Z,88.76
2018-02-04T01:49:58.653Z,88.81
2018-02-04T01:51:08.707Z,88.76
2018-02-04T01:52:18.500Z,88.86
2018-02-04T01:53:28.286Z,88.62
2018-02-04T01:54:38.064Z,88.62
2018-02-04T01:55:48.094Z,88.62
2018-02-04T01:56:58.136Z,88.62
2018-02-04T01:58:08.168Z,88.43
2018-02-04T01:59:17.941Z,88.43
2018-02-04T02:00:27.735Z,88.62
2018-02-04T02:01:37.800Z,88.43
2018-02-04T02:02:47.851Z,88.72
2018-02-04T02:03:57.929Z,88.81
2018-02-04T02:05:07.987Z,88.81
2018-02-04T02:06:18.021Z,88.62
2018-02-04T02:07:27.564Z,88.53
2018-02-04T02:08:37.365Z,88.62
2018-02-04T02:09:47.142Z,88.72
2018-02-04T02:10:57.196Z,88.24
2018-02-04T02:12:06.969Z,88.24
2018-02-04T02:13:16.795Z,88.62
2018-02-04T02:14:26.832Z,88.34
2018-02-04T02:15:37.031Z,88.62
2018-02-04T02:16:47.073Z,88.34
2018-02-04T02:17:57.178Z,88.72
2018-02-04T02:19:06.966Z,88.62
2018-02-04T02:20:17.011Z,88.53
2018-02-04T02:21:26.783Z,88.62
2018-02-04T02:22:36.820Z,88.62
2018-02-04T02:23:46.862Z,88.53
2018-02-04T02:24:56.913Z,88.62
2018-02-04T02:26:06.709Z,88.81
2018-02-04T02:27:16.752Z,88.81
2018-02-04T02:28:26.524Z,88.43
2018-02-04T02:29:36.300Z,88.62
2018-02-04T02:30:46.342Z,88.62
2018-02-04T02:31:56.149Z,88.72
2018-02-04T02:33:06.189Z,88.53
2018-02-04T02:34:16.241Z,88.72
2018-02-04T02:35:26.374Z,88.62
2018-02-04T02:36:36.170Z,88.62
2018-02-04T02:37:45.949Z,88.53
2018-02-04T02:38:55.985Z,88.62
2018-02-04T02:40:05.520Z,88.53
2018-02-04T02:41:15.601Z,88.81
2018-02-04T02:42:25.654Z,88.81
2018-02-04T02:43:35.691Z,88.91
2018-02-04T02:44:45.421Z,88.81
2018-02-04T02:45:55.480Z,88.62
2018-02-04T02:47:05.520Z,88.72
2018-02-04T02:48:15.580Z,88.34
2018-02-04T02:49:25.635Z,88.62
2018-02-04T02:50:35.681Z,88.62
2018-02-04T02:51:45.720Z,88.43
2018-02-04T02:52:55.231Z,88.53
2018-02-04T02:54:05.294Z,88.72
2018-02-04T02:55:30.122Z,88.15
2018-02-04T02:56:40.177Z,88.34
2018-02-04T02:57:50.229Z,88.06
2018-02-04T02:59:00.038Z,88.06
2018-02-04T03:00:09.826Z,88.15
2018-02-04T03:01:19.633Z,88.06
2018-02-04T03:02:29.429Z,88.43
2018-02-04T03:03:39.530Z,88.15
2018-02-04T03:34:58.085Z,84.23
2018-02-04T03:36:08.113Z,84.42
2018-02-04T03:37:18.142Z,86.5
2018-02-04T03:38:28.219Z,86.55
2018-02-04T03:39:38.277Z,87.59
2018-02-04T03:40:48.323Z,88.21
2018-02-04T03:41:58.116Z,88.59
2018-02-04T03:43:08.156Z,89.15
2018-02-04T03:44:17.951Z,89.15
2018-02-04T03:45:27.985Z,89.63
2018-02-04T03:46:37.806Z,89.91
2018-02-04T03:47:47.866Z,89.86
2018-02-04T03:48:57.647Z,89.86
2018-02-04T03:50:07.699Z,89.86
2018-02-04T03:51:17.749Z,89.67
2018-02-04T03:52:27.792Z,89.77
2018-02-04T03:53:37.562Z,89.77
2018-02-04T03:54:47.602Z,89.34
2018-02-04T03:55:57.646Z,89.53
2018-02-04T03:57:07.706Z,89.25
2018-02-04T03:58:17.276Z,89.25
2018-02-04T03:59:27.320Z,89.06
2018-02-04T04:00:37.355Z,89.34
2018-02-04T04:01:47.162Z,89.34
2018-02-04T04:02:57.193Z,89.25
2018-02-04T04:04:07.268Z,88.87
2018-02-04T04:05:17.326Z,89.2
2018-02-04T04:06:27.356Z,89.29
2018-02-04T04:07:37.144Z,89
2018-02-04T04:08:46.932Z,88.72
2018-02-04T04:09:56.766Z,88.62
2018-02-04T04:11:06.559Z,88.53
2018-02-04T04:12:16.613Z,88.24
2018-02-04T04:13:26.658Z,88.53
2018-02-04T04:14:36.464Z,88.81
2018-02-04T04:15:46.241Z,88.81
2018-02-04T04:16:56.024Z,88.81
2018-02-04T04:18:06.054Z,88.34
2018-02-04T04:19:15.844Z,88.62
2018-02-04T04:20:25.898Z,88.62
2018-02-04T04:21:35.954Z,88.53
2018-02-04T04:22:46.005Z,88.43
2018-02-04T04:23:56.096Z,88.43
2018-02-04T04:25:06.126Z,88.53
2018-02-04T04:26:15.651Z,88.53
2018-02-04T04:27:25.750Z,88.15
2018-02-04T04:28:35.535Z,87.96
2018-02-04T04:29:45.318Z,88.43
2018-02-04T04:30:55.354Z,88.06
2018-02-04T04:32:04.880Z,88.15
2018-02-04T04:33:14.943Z,88.15
2018-02-04T04:34:24.986Z,88.62
2018-02-04T04:35:35.030Z,88.06
2018-02-04T04:36:44.810Z,88.53
2018-02-04T04:37:54.582Z,88.43
2018-02-04T04:39:04.635Z,88.34
2018-02-04T04:40:14.666Z,88.34
2018-02-04T04:41:24.461Z,88.72
2018-02-04T04:42:34.507Z,88.53
2018-02-04T04:43:44.554Z,88.62
2018-02-04T04:44:54.611Z,88.72
2018-02-04T04:46:04.656Z,88.72
2018-02-04T04:47:14.735Z,88.34
2018-02-04T04:48:24.520Z,88.72
2018-02-04T04:49:34.576Z,88.62
2018-02-04T04:50:44.670Z,88.72
2018-02-04T04:51:54.725Z,88.29
2018-02-04T04:53:04.770Z,88.2
2018-02-04T04:54:14.805Z,88.15
2018-02-04T04:55:24.839Z,88.1
2018-02-04T04:56:34.682Z,88.1
2018-02-04T04:57:44.720Z,88.39
2018-02-04T04:58:54.509Z,88.29
2018-02-04T05:00:04.558Z,88.39
2018-02-04T05:01:14.591Z,87.91
2018-02-04T05:02:24.631Z,88.29
2018-02-04T05:03:34.423Z,88.01
2018-02-04T05:04:44.460Z,88.2
2018-02-04T05:05:54.244Z,88.29
2018-02-04T05:07:04.284Z,88.1
2018-02-04T05:08:14.317Z,88.1
2018-02-04T05:09:24.364Z,88.1
2018-02-04T05:10:34.134Z,88.29
2018-02-04T05:11:43.922Z,88.39
2018-02-04T05:12:53.960Z,88.48
2018-02-04T05:14:04.031Z,88.86
2018-02-04T05:15:13.553Z,88.95
2018-02-04T05:16:23.340Z,88.76
2018-02-04T05:17:33.384Z,88.57
2018-02-04T05:18:43.430Z,88.86
2018-02-04T05:19:53.547Z,88.76
2018-02-04T05:21:03.329Z,88.76
2018-02-04T05:22:13.371Z,88.67
2018-02-04T05:23:23.158Z,88.86
2018-02-04T05:24:33.206Z,88.62
2018-02-04T05:25:43.309Z,88.39
2018-02-04T05:26:53.113Z,88.72
2018-02-04T05:28:02.899Z,88.57
2018-02-04T05:29:12.942Z,88.76
2018-02-04T05:30:22.473Z,88.86
2018-02-04T05:31:32.296Z,88.39
2018-02-04T05:32:42.338Z,88.39
2018-02-04T05:33:52.376Z,88.2
2018-02-04T05:35:02.416Z,88.39
2018-02-04T05:36:12.197Z,88.01
2018-02-04T05:37:22.245Z,88.2
2018-02-04T05:38:32.056Z,88.1
2018-02-04T05:39:42.100Z,88.1
2018-02-04T05:40:52.144Z,88.1
2018-02-04T05:42:01.946Z,88.1
2018-02-04T05:43:12.135Z,88.1
2018-02-04T05:44:22.176Z,88.2
2018-02-04T05:45:32.217Z,88.2
2018-02-04T05:46:42.017Z,88.1
2018-02-04T05:47:51.801Z,88.1
2018-02-04T05:49:01.897Z,88.1
2018-02-04T05:50:11.935Z,88.1
2018-02-04T05:51:21.971Z,88.1
2018-02-04T05:52:32.007Z,88.39
2018-02-04T05:53:42.067Z,87.91
2018-02-04T05:54:52.105Z,88.29
2018-02-04T05:56:02.154Z,88.2
2018-02-04T05:57:12.190Z,88.01
2018-02-04T05:58:22.228Z,88.2
2018-02-04T05:59:32.029Z,88.29
2018-02-04T06:00:42.122Z,88.2
2018-02-04T06:01:52.168Z,88.29
2018-02-04T06:03:02.203Z,88.2
2018-02-04T06:04:12.251Z,88.01
2018-02-04T06:05:22.041Z,88.39
2018-02-04T06:06:32.090Z,88.39
2018-02-04T06:07:42.132Z,88.1
2018-02-04T06:08:51.952Z,88.1
2018-02-04T06:10:01.466Z,88.1
2018-02-04T06:11:11.524Z,88.29
2018-02-04T06:12:21.629Z,88.1
2018-02-04T06:13:31.423Z,88.39
2018-02-04T06:14:41.466Z,88.39
2018-02-04T06:15:51.248Z,88.48
2018-02-04T06:17:01.301Z,88.2
2018-02-04T06:18:11.410Z,88.39
2018-02-04T06:19:21.204Z,88.2
2018-02-04T06:20:30.716Z,88.2
2018-02-04T06:21:40.492Z,88.39
2018-02-04T06:22:50.028Z,88.39
2018-02-04T06:24:00.116Z,88.48
2018-02-04T06:25:10.173Z,88.01
2018-02-04T06:26:20.208Z,88.1
2018-02-04T06:27:30.004Z,88.1
2018-02-04T06:28:40.053Z,88.39
2018-02-04T06:29:50.138Z,88.01
2018-02-04T06:30:59.929Z,87.82
2018-02-04T06:32:09.953Z,88.1
2018-02-04T06:33:20.004Z,87.91
2018-02-04T06:34:30.051Z,88.01
2018-02-04T06:35:39.898Z,87.91
2018-02-04T06:36:49.947Z,88.01
2018-02-04T06:37:59.993Z,87.82
2018-02-04T06:39:10.019Z,87.91
2018-02-04T06:40:20.061Z,87.91
2018-02-04T06:41:29.907Z,87.91
2018-02-04T06:42:39.963Z,87.82
2018-02-04T06:43:50.098Z,88.05
2018-02-04T06:44:59.927Z,87.91
2018-02-04T06:46:09.983Z,87.95
2018-02-04T06:47:20.071Z,87.95
2018-02-04T06:48:30.117Z,88.05
2018-02-04T06:49:40.218Z,88.1
2018-02-04T06:50:50.001Z,88.01
2018-02-04T06:52:00.035Z,87.95
2018-02-04T06:53:10.090Z,87.57
2018-02-04T06:54:20.103Z,87.86
2018-02-04T06:55:29.902Z,87.38
2018-02-04T06:56:39.946Z,87.67
2018-02-04T06:57:50.002Z,87.57
2018-02-04T06:59:00.104Z,87.57
2018-02-04T07:00:10.156Z,87.86
2018-02-04T07:01:20.203Z,87.57
2018-02-04T07:02:30.238Z,88.15
2018-02-04T07:03:40.030Z,87.91
2018-02-04T07:04:50.072Z,88.15
2018-02-04T07:06:00.114Z,87.86
2018-02-04T07:07:09.896Z,88.05
2018-02-04T07:08:19.938Z,88.05
2018-02-04T07:09:29.983Z,87.95
2018-02-04T07:10:39.832Z,87.95
2018-02-04T07:11:49.874Z,87.86
2018-02-04T07:12:59.901Z,87.86
2018-02-04T07:14:09.690Z,87.86
2018-02-04T07:15:19.729Z,87.95
2018-02-04T07:16:29.790Z,88.34
2018-02-04T07:17:39.576Z,87.95
2018-02-04T07:18:49.359Z,87.86
2018-02-04T07:19:59.418Z,88.15
2018-02-04T07:21:09.487Z,88.05
2018-02-04T07:22:19.542Z,88.24
2018-02-04T07:23:29.344Z,88.05
2018-02-04T07:24:39.460Z,87.86
2018-02-04T07:25:49.528Z,88.05
2018-02-04T07:26:59.569Z,88.15
2018-02-04T07:28:09.727Z,88.01
2018-02-04T07:29:19.500Z,88.05
2018-02-04T07:30:29.539Z,87.76
2018-02-04T07:31:39.578Z,87.76
2018-02-04T07:32:49.358Z,87.57
2018-02-04T07:33:59.395Z,87.76
2018-02-04T07:35:09.448Z,88.15
2018-02-04T07:36:19.494Z,87.95
2018-02-04T07:37:29.541Z,87.76
2018-02-04T07:38:39.326Z,87.95
2018-02-04T07:39:49.165Z,87.86
2018-02-04T07:40:58.960Z,88.15
2018-02-04T07:42:09.012Z,87.76
2018-02-04T07:43:19.054Z,88.15
2018-02-04T07:44:28.851Z,87.95
2018-02-04T07:45:38.910Z,87.86
2018-02-04T07:46:48.707Z,87.95
2018-02-04T07:47:58.762Z,88.05
2018-02-04T07:49:08.818Z,87.95
2018-02-04T07:50:18.884Z,88.34
2018-02-04T07:51:28.957Z,88.05
2018-02-04T07:52:38.485Z,88.43
2018-02-04T07:53:48.532Z,87.76
2018-02-04T07:54:58.589Z,87.95
2018-02-04T07:56:08.680Z,87.86
2018-02-04T07:57:18.770Z,87.76
2018-02-04T07:58:28.829Z,87.76
2018-02-04T07:59:38.876Z,87.76
2018-02-04T08:00:48.930Z,87.29
2018-02-04T08:01:58.718Z,87.76
2018-02-04T08:03:08.500Z,87.76
2018-02-04T08:04:18.575Z,88.05
2018-02-04T08:05:28.623Z,87.67
2018-02-04T08:06:38.675Z,87.29
2018-02-04T08:07:48.725Z,87.71
2018-02-04T08:08:58.775Z,87.62
2018-02-04T08:10:08.831Z,87.62
2018-02-04T08:11:18.897Z,87.71
2018-02-04T08:12:28.945Z,87.24
2018-02-04T08:13:38.749Z,87.14
2018-02-04T08:14:48.609Z,87.24
2018-02-04T08:15:58.661Z,87.34
2018-02-04T08:17:08.444Z,87.34
2018-02-04T08:18:18.222Z,87.43
2018-02-04T08:19:28.339Z,87.34
2018-02-04T08:20:38.424Z,87.34
2018-02-04T08:21:48.216Z,87.34
2018-02-04T08:22:58.260Z,87.43
2018-02-04T08:24:08.307Z,87.62
2018-02-04T08:25:18.342Z,87.38
2018-02-04T08:26:28.432Z,87.47
2018-02-04T08:27:37.948Z,87.14
2018-02-04T08:28:47.724Z,87.19
2018-02-04T08:29:57.535Z,87.57
2018-02-04T08:31:07.582Z,86.99
2018-02-04T08:32:17.422Z,87.19
2018-02-04T08:33:27.496Z,86.61
2018-02-04T08:34:37.543Z,87.47
2018-02-04T08:35:47.609Z,87.47
2018-02-04T08:36:57.662Z,86.99
2018-02-04T08:38:07.735Z,86.8
2018-02-04T08:39:17.523Z,87.19
2018-02-04T08:40:27.577Z,86.99
2018-02-04T08:41:37.371Z,87.28
2018-02-04T08:42:47.182Z,87.28
2018-02-04T08:43:57.211Z,87.28
2018-02-04T08:45:07.253Z,87.28
2018-02-04T08:46:17.299Z,87.19
2018-02-04T08:47:27.337Z,86.9
2018-02-04T08:48:37.387Z,86.57
2018-02-04T08:49:47.440Z,86.85
2018-02-04T08:50:57.484Z,86.94
2018-02-04T08:52:07.558Z,86.66
2018-02-04T08:53:17.623Z,86.47
2018-02-04T08:54:27.408Z,86.47
2018-02-04T08:55:36.944Z,86.38
2018-02-04T08:56:46.802Z,86.76
2018-02-04T08:57:56.842Z,86.94
2018-02-04T08:59:06.649Z,86.94
2018-02-04T09:00:16.434Z,86.66
2018-02-04T09:01:26.498Z,86.7
2018-02-04T09:02:36.570Z,86.99
2018-02-04T09:03:46.628Z,86.51
2018-02-04T09:04:56.162Z,86.51
2018-02-04T09:06:06.224Z,86.51
2018-02-04T09:07:16.263Z,86.61
2018-02-04T09:08:26.349Z,86.51
2018-02-04T09:09:36.145Z,86.51
2018-02-04T09:10:46.215Z,86.51
2018-02-04T09:11:56.285Z,86.7
2018-02-04T09:13:06.591Z,86.42
2018-02-04T09:14:16.678Z,86.61
2018-02-04T09:15:26.750Z,86.32
2018-02-04T09:16:36.812Z,86.61
2018-02-04T09:17:46.609Z,86.13
2018-02-04T09:18:56.400Z,86.42
2018-02-04T09:20:06.210Z,86.36
2018-02-04T09:21:16.021Z,86.08
2018-02-04T09:22:26.119Z,85.89
2018-02-04T09:23:35.670Z,85.6
2018-02-04T09:24:45.716Z,85.08
2018-02-04T09:25:55.514Z,84.79
2018-02-04T09:27:05.315Z,84.45
2018-02-04T09:28:15.425Z,83.78
2018-02-04T09:29:25.462Z,84.07
2018-02-04T09:30:35.266Z,83.73
2018-02-04T09:31:45.335Z,83.73
2018-02-04T09:32:55.120Z,84.11
2018-02-04T09:34:05.276Z,84.4
2018-02-04T09:35:15.323Z,84.11
2018-02-04T09:36:25.431Z,84.59
2018-02-04T09:37:35.528Z,84.59
2018-02-04T09:38:45.315Z,85.06
2018-02-04T09:39:55.361Z,84.88
2018-02-04T09:41:05.148Z,84.97
2018-02-04T09:42:14.947Z,85.16
2018-02-04T09:43:24.483Z,85.16
2018-02-04T09:44:34.282Z,86.11
2018-02-04T09:45:44.095Z,85.83
2018-02-04T09:46:54.164Z,86.21
2018-02-04T09:48:03.717Z,86.69
2018-02-04T09:49:13.783Z,87.16
2018-02-04T09:50:23.567Z,86.98
2018-02-04T09:51:33.629Z,86.93
2018-02-04T09:52:43.707Z,87.6
2018-02-04T09:53:53.537Z,87.6
2018-02-04T09:55:03.590Z,87.12
2018-02-04T09:56:13.389Z,87.69
2018-02-04T09:57:23.185Z,87.5
2018-02-04T09:58:32.995Z,87.65
2018-02-04T09:59:43.131Z,87.55
2018-02-04T10:00:53.200Z,87.46
2018-02-04T10:02:03.320Z,87.65
2018-02-04T10:03:13.461Z,87.84
2018-02-04T10:04:23.534Z,87.74
2018-02-04T10:05:33.613Z,87.36
2018-02-04T10:06:43.676Z,87.36
2018-02-04T10:07:53.729Z,87.27
2018-02-04T10:09:03.791Z,87.55
2018-02-04T10:10:13.838Z,86.79
2018-02-04T10:11:23.918Z,86.84
2018-02-04T10:12:34.020Z,86.75
2018-02-04T10:13:43.824Z,86.75
2018-02-04T10:14:53.947Z,87.03
2018-02-04T10:16:04.008Z,87.03
2018-02-04T10:17:14.066Z,86.75
2018-02-04T10:18:23.874Z,86.6
2018-02-04T10:19:33.955Z,86.6
2018-02-04T10:20:43.524Z,86.79
2018-02-04T10:21:53.312Z,86.79
2018-02-04T10:23:03.367Z,86.65
2018-02-04T10:24:13.436Z,86.75
2018-02-04T10:25:23.613Z,86.75
2018-02-04T10:26:33.764Z,86.65
2018-02-04T10:27:43.552Z,86.75
2018-02-04T10:28:53.359Z,87.03
2018-02-04T10:30:03.412Z,87.41
2018-02-04T10:31:13.713Z,87.13
2018-02-04T10:32:23.819Z,87.03
2018-02-04T10:33:33.608Z,87.03
2018-02-04T10:34:43.688Z,87.18
2018-02-04T10:35:53.804Z,87.08
2018-02-04T10:37:03.843Z,87.08
2018-02-04T10:38:13.932Z,86.99
2018-02-04T10:39:24.005Z,87.08
2018-02-04T10:40:33.792Z,87.46
2018-02-04T10:41:43.850Z,87.75
2018-02-04T10:42:53.915Z,87.37
2018-02-04T10:44:04.028Z,87.27
2018-02-04T10:45:14.090Z,87.56
2018-02-04T10:46:24.158Z,87.75
2018-02-04T10:47:33.953Z,87.9
2018-02-04T10:48:44.091Z,87.85
2018-02-04T10:49:54.143Z,87.94
2018-02-04T10:51:03.934Z,87.8
2018-02-04T10:52:13.994Z,87.8
2018-02-04T10:53:24.056Z,87.42
2018-02-04T10:54:34.117Z,87.32
2018-02-04T10:55:43.994Z,86.85
2018-02-04T10:56:54.046Z,86.22
2018-02-04T10:58:04.108Z,87.27
2018-02-04T10:59:14.155Z,87.52
2018-02-04T11:00:23.957Z,87.23
2018-02-04T11:01:34.070Z,86.61
2018-02-04T11:02:43.862Z,86.04
2018-02-04T11:03:53.904Z,86.13
2018-02-04T11:05:03.978Z,85.94
2018-02-04T11:06:14.062Z,86.7
2018-02-04T11:07:24.128Z,86.61
2018-02-04T11:08:34.165Z,86.32
2018-02-04T11:09:44.221Z,86.61
2018-02-04T11:10:54.271Z,86.32
2018-02-04T11:12:04.324Z,86.42
2018-02-04T11:13:14.374Z,86.13
2018-02-04T11:14:24.437Z,86.08
2018-02-04T11:15:34.486Z,86.42
2018-02-04T11:16:44.566Z,86.51
2018-02-04T11:17:54.624Z,86.22
2018-02-04T11:19:04.459Z,85.85
2018-02-04T11:20:14.526Z,86.18
2018-02-04T11:21:24.351Z,85.99
2018-02-04T11:22:34.398Z,85.7
2018-02-04T11:23:44.471Z,85.36
2018-02-04T11:24:54.318Z,85.74
2018-02-04T11:26:04.478Z,85.46
2018-02-04T11:27:14.557Z,85.84
2018-02-04T11:28:24.618Z,85.74
2018-02-04T11:29:34.692Z,85.84
2018-02-04T11:30:44.796Z,85.93
2018-02-04T11:31:54.592Z,85.46
2018-02-04T11:33:04.656Z,85.64
2018-02-04T11:34:14.710Z,86.03
2018-02-04T11:35:24.502Z,85.55
2018-02-04T11:36:34.372Z,85.31
2018-02-04T11:37:44.153Z,86.26
2018-02-04T11:38:53.949Z,86.32
2018-02-04T11:40:04.029Z,84.92
2018-02-04T11:41:13.832Z,84.88
2018-02-04T11:42:23.918Z,84.49
2018-02-04T11:43:34.008Z,83.73
2018-02-04T11:44:44.073Z,83.96
2018-02-04T11:45:54.148Z,84.49
2018-02-04T11:47:03.955Z,84.82
2018-02-04T11:48:14.010Z,84.06
2018-02-04T11:49:23.800Z,83.91
2018-02-04T11:50:33.856Z,83.53
2018-02-04T11:51:43.922Z,84.29
2018-02-04T11:52:53.782Z,84.48
2018-02-04T11:54:03.897Z,85.39
2018-02-04T11:55:13.693Z,85.11
2018-02-04T11:56:23.754Z,85.21
2018-02-04T11:57:33.563Z,85.11
2018-02-04T11:58:43.630Z,84.82
2018-02-04T11:59:53.711Z,84.67
2018-02-04T12:01:03.790Z,84.86
2018-02-04T12:02:13.856Z,85.21
2018-02-04T12:03:23.926Z,85.39
2018-02-04T12:04:34.010Z,85.68
2018-02-04T12:05:44.123Z,86.21
2018-02-04T12:06:53.917Z,86.11
2018-02-04T12:08:03.722Z,86.78
2018-02-04T12:09:13.771Z,87.07
2018-02-04T12:10:23.305Z,85.73
2018-02-04T12:11:33.391Z,85.39
2018-02-04T12:12:43.447Z,86.06
2018-02-04T12:13:53.489Z,86.69
2018-02-04T12:15:03.560Z,87.6
2018-02-04T12:16:13.366Z,87.6
2018-02-04T12:17:23.162Z,87.6
2018-02-04T12:18:33.231Z,87.6
2018-02-04T12:19:43.286Z,87.55
2018-02-04T12:20:53.366Z,87.31
2018-02-04T12:22:03.426Z,86.83
2018-02-04T12:23:13.210Z,86.74
2018-02-04T12:24:23.291Z,86.93
2018-02-04T12:25:33.324Z,86.11
2018-02-04T12:26:43.386Z,85.73
2018-02-04T12:27:53.439Z,85.54
2018-02-04T12:29:03.500Z,85.25
2018-02-04T12:30:13.300Z,85.01
2018-02-04T12:31:23.084Z,84.92
2018-02-04T12:32:32.611Z,84.48
2018-02-04T12:33:42.653Z,84.67
2018-02-04T12:34:52.754Z,83.91
2018-02-04T12:36:02.541Z,84.23
2018-02-04T12:37:12.321Z,84.14
2018-02-04T12:38:22.387Z,84.43
2018-02-04T12:39:32.171Z,85.25
2018-02-04T12:40:42.225Z,85.25
2018-02-04T12:41:52.026Z,86.54
2018-02-04T12:43:02.093Z,87.16
2018-02-04T12:44:11.905Z,88.07
2018-02-04T12:45:21.950Z,88.26
2018-02-04T12:46:31.997Z,88.7
2018-02-04T12:47:41.548Z,88.51
2018-02-04T12:48:51.344Z,88.65
2018-02-04T12:50:01.387Z,89.03
2018-02-04T12:51:11.194Z,89.32
2018-02-04T12:52:21.259Z,88.99
2018-02-04T12:53:31.337Z,89.08
2018-02-04T12:54:41.423Z,88.7
2018-02-04T12:55:51.497Z,88.79
2018-02-04T12:57:01.313Z,88.56
2018-02-04T12:58:11.179Z,88.28
2018-02-04T12:59:21.258Z,88.09
2018-02-04T13:00:31.316Z,88.28
2018-02-04T13:01:41.356Z,87.9
2018-02-04T13:02:51.402Z,87.8
2018-02-04T13:04:01.517Z,87.9
2018-02-04T13:05:11.581Z,87.23
2018-02-04T13:06:21.367Z,87.52
2018-02-04T13:07:31.403Z,87.23
2018-02-04T13:08:41.242Z,87.04
2018-02-04T13:09:51.382Z,86.76
2018-02-04T13:11:01.465Z,86.94
2018-02-04T13:12:11.268Z,86.76
2018-02-04T13:13:21.329Z,86.94
2018-02-04T13:14:31.146Z,86.38
2018-02-04T13:15:41.264Z,87.23
2018-02-04T13:16:51.344Z,86.94
2018-02-04T13:18:01.404Z,87.13
2018-02-04T13:19:11.486Z,86.76
2018-02-04T13:20:21.551Z,86.76
2018-02-04T13:21:31.643Z,86.76
2018-02-04T13:22:41.694Z,86.85
2018-02-04T13:23:51.754Z,86.66
2018-02-04T13:25:01.809Z,86.38
2018-02-04T13:26:11.607Z,86.38
2018-02-04T13:27:22.013Z,86.57
2018-02-04T13:28:32.091Z,86.85
2018-02-04T13:29:41.638Z,86.66
2018-02-04T13:30:51.443Z,87.52
2018-02-04T13:32:01.246Z,86.99
2018-02-04T13:33:11.309Z,87.38
2018-02-04T13:34:21.433Z,87.38
2018-02-04T13:35:31.511Z,86.66
2018-02-04T13:36:41.588Z,86.38
2018-02-04T13:37:51.656Z,86.85
2018-02-04T13:39:01.457Z,86.18
2018-02-04T13:40:11.526Z,86.47
2018-02-04T13:41:21.589Z,86.38
2018-02-04T13:42:31.691Z,86.47
2018-02-04T13:43:41.751Z,86.38
2018-02-04T13:44:51.566Z,87.13
2018-02-04T13:46:01.638Z,85.66
2018-02-04T13:47:11.699Z,85.18
2018-02-04T13:48:21.512Z,84.08
2018-02-04T13:49:31.571Z,84.03
2018-02-04T13:50:41.626Z,84.31
2018-02-04T13:51:51.433Z,84.88
2018-02-04T13:53:01.501Z,84.88
2018-02-04T13:54:11.570Z,84.6
2018-02-04T13:55:21.381Z,84.12
2018-02-04T13:56:31.223Z,83.31
2018-02-04T13:57:41.295Z,83.35
2018-02-04T13:58:51.369Z,83.44
2018-02-04T14:00:01.442Z,84.01
2018-02-04T14:01:11.569Z,83.35
2018-02-04T14:02:21.678Z,83.29
2018-02-04T14:03:31.747Z,83.01
2018-02-04T14:04:41.852Z,82.82
2018-02-04T14:05:51.903Z,82.95
2018-02-04T14:07:01.980Z,83.14
2018-02-04T14:08:11.826Z,82.67
2018-02-04T14:09:21.882Z,83.53
2018-02-04T14:10:31.951Z,83.43
2018-02-04T14:11:41.867Z,83.47
2018-02-04T14:12:51.412Z,83.57
2018-02-04T14:14:01.487Z,83.47
2018-02-04T14:15:11.274Z,84.67
2018-02-04T14:16:21.084Z,85.87
2018-02-04T14:17:30.895Z,86.59
2018-02-04T14:18:41.097Z,87.69
2018-02-04T14:19:50.942Z,88.22
2018-02-04T14:21:01.015Z,89.13
2018-02-04T14:22:10.849Z,89.18
2018-02-04T14:23:20.927Z,89.65
2018-02-04T14:24:31.011Z,89.56
2018-02-04T14:25:41.074Z,89.32
2018-02-04T14:26:50.622Z,89.32
2018-02-04T14:28:00.445Z,89.42
2018-02-04T14:29:10.507Z,89.18
2018-02-04T14:30:20.686Z,89.28
2018-02-04T14:31:30.766Z,88.9
2018-02-04T14:32:40.607Z,88.9
2018-02-04T14:33:50.729Z,88.61
2018-02-04T14:35:00.810Z,88.33
2018-02-04T14:36:10.898Z,88.61
2018-02-04T14:37:20.694Z,88.52
2018-02-04T14:38:30.777Z,88.04
2018-02-04T14:39:40.814Z,88.23
2018-02-04T14:40:50.627Z,87.57
2018-02-04T14:42:00.421Z,87.81
2018-02-04T14:43:10.511Z,87.85
2018-02-04T14:44:20.556Z,87.81
2018-02-04T14:45:30.635Z,87.52
2018-02-04T14:46:40.698Z,87.62
2018-02-04T14:47:50.751Z,87.81
2018-02-04T14:49:01.622Z,87.81
2018-02-04T14:50:11.700Z,88
2018-02-04T14:51:21.756Z,87.62
2018-02-04T14:52:31.803Z,87.9
2018-02-04T14:53:41.865Z,88.09
2018-02-04T14:54:51.937Z,87.71
2018-02-04T14:56:01.738Z,87.34
2018-02-04T14:57:11.819Z,87.62
2018-02-04T14:58:21.704Z,87.71
2018-02-04T14:59:31.771Z,87.67
2018-02-04T15:00:41.829Z,87.71
2018-02-04T15:01:51.871Z,87.48
2018-02-04T15:03:01.961Z,87.67
2018-02-04T15:04:12.026Z,87.48
2018-02-04T15:05:22.078Z,87.57
2018-02-04T15:06:32.114Z,87.57
2018-02-04T15:07:42.171Z,87.67
2018-02-04T15:08:52.222Z,87.76
2018-02-04T15:10:02.009Z,87.86
2018-02-04T15:11:12.066Z,87.29
2018-02-04T15:12:22.137Z,87.76
2018-02-04T15:13:32.192Z,87.29
2018-02-04T15:14:41.998Z,87.29
2018-02-04T15:15:52.047Z,87.19
2018-02-04T15:17:02.100Z,87.19
2018-02-04T15:18:11.965Z,87.48
2018-02-04T15:19:22.018Z,87.48
2018-02-04T15:20:32.056Z,87.29
2018-02-04T15:21:42.120Z,87.19
2018-02-04T15:22:52.188Z,87.57
2018-02-04T15:24:02.353Z,87.67
2018-02-04T15:25:12.410Z,87.57
2018-02-04T15:26:22.215Z,87.76
2018-02-04T15:27:32.260Z,87.57
2018-02-04T15:28:42.322Z,87.48
2018-02-04T15:29:52.399Z,87.38
2018-02-04T15:31:02.480Z,87.57
2018-02-04T15:32:12.549Z,87.72
2018-02-04T15:33:22.334Z,87.62
2018-02-04T15:34:32.129Z,87.72